createdAt,value
2023-01-05T00:02:24.434Z,2.47
2023-01-05T00:06:43.183Z,2.22
2023-01-05T00:11:46.347Z,2.03
2023-01-05T00:16:23.102Z,2.60
2023-01-05T00:20:59.424Z,2.20
2023-01-05T00:25:21.628Z,2.67
2023-01-05T00:29:38.821Z,2.35
2023-01-05T00:33:56.372Z,2.03
2023-01-05T00:38:13.807Z,2.27
2023-01-05T00:42:31.481Z,2.22
2023-01-05T00:46:48.623Z,1.80
2023-01-05T00:51:06.401Z,2.10
2023-01-05T00:55:24.196Z,1.95
2023-01-05T00:59:42.428Z,1.80
2023-01-05T01:03:59.869Z,2.15
2023-01-05T01:08:17.481Z,1.88
2023-01-05T01:12:35.042Z,1.97
2023-01-05T01:16:52.383Z,1.80
2023-01-05T01:21:09.966Z,1.70
2023-01-05T01:25:27.923Z,1.70
2023-01-05T01:29:45.496Z,1.40
2023-01-05T01:34:03.196Z,1.87
2023-01-05T01:38:21.382Z,2.40
2023-01-05T01:42:39.025Z,1.67
2023-01-05T01:46:56.723Z,1.77
2023-01-05T01:51:22.654Z,1.45
2023-01-05T01:55:41.364Z,2.30
2023-01-05T02:08:35.756Z,2.72
2023-01-05T02:13:31.647Z,2.17
2023-01-05T02:18:20.597Z,2.00
2023-01-05T02:23:09.998Z,1.98
2023-01-05T02:27:54.333Z,1.63
2023-01-05T02:32:55.236Z,1.70
2023-01-05T02:37:33.119Z,2.22
2023-01-05T02:42:13.146Z,1.77
2023-01-05T02:46:30.833Z,1.60
2023-01-05T02:51:02.559Z,1.63
2023-01-05T02:55:29.672Z,1.30
2023-01-05T02:59:55.004Z,1.50
2023-01-05T03:04:23.523Z,1.90
2023-01-05T03:08:53.259Z,1.63
2023-01-05T03:13:30.064Z,1.60
2023-01-05T03:17:55.324Z,1.83
2023-01-05T03:22:42.120Z,1.63
2023-01-05T03:27:19.051Z,1.35
2023-01-05T03:32:10.001Z,0.90
2023-01-05T03:36:29.889Z,1.23
2023-01-05T03:40:53.791Z,1.15
2023-01-05T03:45:12.407Z,1.52
2023-01-05T03:49:29.862Z,1.45
2023-01-05T03:53:47.481Z,1.70
2023-01-05T03:58:05.231Z,1.40
2023-01-05T04:02:22.896Z,1.27
2023-01-05T04:06:40.595Z,1.65
2023-01-05T04:11:04.335Z,1.50
2023-01-05T04:15:22.012Z,1.80
2023-01-05T04:19:39.470Z,2.47
2023-01-05T04:23:57.057Z,1.40
2023-01-05T04:28:14.089Z,1.50
2023-01-05T04:32:31.854Z,1.75
2023-01-05T04:36:49.732Z,1.80
2023-01-05T04:41:07.273Z,1.73
2023-01-05T04:45:24.868Z,1.77
2023-01-05T04:49:42.965Z,1.92
2023-01-05T04:54:00.417Z,1.65
2023-01-05T04:58:19.390Z,1.77
2023-01-05T05:02:37.168Z,1.42
2023-01-05T05:06:56.449Z,1.67
2023-01-05T05:11:14.120Z,2.00
2023-01-05T05:15:31.682Z,1.85
2023-01-05T05:19:49.164Z,1.70
2023-01-05T05:24:06.959Z,1.90
2023-01-05T05:28:28.321Z,2.05
2023-01-05T05:32:46.110Z,1.77
2023-01-05T05:37:03.600Z,1.40
2023-01-05T05:41:21.138Z,1.25
2023-01-05T05:45:38.756Z,2.33
2023-01-05T05:49:56.479Z,1.27
2023-01-05T05:54:13.993Z,1.50
2023-01-05T05:58:31.682Z,1.50
2023-01-05T06:02:49.313Z,0.90
2023-01-05T06:07:06.946Z,0.67
2023-01-05T06:11:24.532Z,0.43
2023-01-05T06:15:43.081Z,0.60
2023-01-05T06:20:00.675Z,0.90
2023-01-05T06:24:18.415Z,0.87
2023-01-05T06:28:35.844Z,0.80
2023-01-05T06:32:53.440Z,1.42
2023-01-05T06:37:10.955Z,1.70
2023-01-05T06:41:28.498Z,1.08
2023-01-05T06:45:46.029Z,1.02
2023-01-05T06:50:04.111Z,2.23
2023-01-05T06:54:21.504Z,1.33
2023-01-05T06:58:39.215Z,1.67
2023-01-05T07:02:56.734Z,0.77
2023-01-05T07:07:17.072Z,0.80
2023-01-05T07:11:35.025Z,1.27
2023-01-05T07:15:52.748Z,0.80
2023-01-05T07:20:10.692Z,1.00
2023-01-05T07:24:28.382Z,0.93
2023-01-05T07:28:46.033Z,1.10
2023-01-05T07:33:03.890Z,0.93
2023-01-05T07:37:21.415Z,1.00
2023-01-05T07:41:38.872Z,0.80
2023-01-05T07:46:04.021Z,0.73
2023-01-05T07:50:21.821Z,0.68
2023-01-05T07:54:39.295Z,0.90
2023-01-05T07:58:56.802Z,1.08
2023-01-05T08:03:15.704Z,0.95
2023-01-05T08:07:33.396Z,0.63
2023-01-05T08:11:50.841Z,0.95
2023-01-05T08:16:08.636Z,1.58
2023-01-05T08:20:25.815Z,0.82
2023-01-05T08:24:43.662Z,1.23
2023-01-05T08:29:01.544Z,1.70
2023-01-05T08:33:19.200Z,1.90
2023-01-05T08:37:36.230Z,1.25
2023-01-05T08:41:58.886Z,1.23
2023-01-05T08:46:21.140Z,2.17
2023-01-05T08:50:38.756Z,1.15
2023-01-05T08:54:56.182Z,1.83
2023-01-05T08:59:14.228Z,1.67
2023-01-05T09:03:31.777Z,2.10
2023-01-05T09:07:50.251Z,1.55
2023-01-05T09:12:08.071Z,1.75
2023-01-05T09:21:07.851Z,1.98
2023-01-05T09:25:25.807Z,2.55
2023-01-05T09:29:43.713Z,2.13
2023-01-05T09:34:01.457Z,4.27
2023-01-05T09:38:18.841Z,3.03
2023-01-05T09:42:40.525Z,2.00
2023-01-05T09:47:01.965Z,2.20
2023-01-05T09:51:19.208Z,1.63
2023-01-05T09:55:36.911Z,1.80
2023-01-05T09:59:59.156Z,1.73
2023-01-05T10:04:20.939Z,1.73
2023-01-05T10:08:45.127Z,2.20
2023-01-05T10:13:04.681Z,1.90
2023-01-05T10:17:41.234Z,2.10
2023-01-05T10:22:24.764Z,1.77
2023-01-05T10:27:24.144Z,1.90
2023-01-05T10:31:46.359Z,2.33
2023-01-05T10:36:28.149Z,2.40
2023-01-05T10:41:19.520Z,2.42
2023-01-05T10:45:57.260Z,2.63
2023-01-05T10:50:39.451Z,2.47
2023-01-05T10:55:01.193Z,2.10
2023-01-05T10:59:18.842Z,2.22
2023-01-05T11:04:23.791Z,1.65
2023-01-05T11:08:30.812Z,2.00
2023-01-05T11:13:33.779Z,1.90
2023-01-05T11:17:51.518Z,1.70
2023-01-05T11:22:40.395Z,1.67
2023-01-05T11:27:21.275Z,1.98
2023-01-05T11:31:53.565Z,2.47
2023-01-05T11:36:15.055Z,2.97
2023-01-05T11:40:36.164Z,1.50
2023-01-05T11:45:21.306Z,1.52
2023-01-05T11:49:39.095Z,2.08
2023-01-05T11:53:56.740Z,2.38
2023-01-05T11:58:27.016Z,1.83
2023-01-05T12:03:03.325Z,1.70
2023-01-05T12:07:37.621Z,2.15
2023-01-05T12:11:55.063Z,1.70
2023-01-05T12:16:27.704Z,1.45
2023-01-05T12:21:01.509Z,1.63
2023-01-05T12:25:26.317Z,1.50
2023-01-05T12:35:20.122Z,1.00
2023-01-05T12:40:06.712Z,1.50
2023-01-05T12:44:45.476Z,0.73
2023-01-05T12:49:11.208Z,1.55
2023-01-05T12:53:43.855Z,1.33
2023-01-05T12:58:31.644Z,3.70
2023-01-05T13:03:01.028Z,2.95
2023-01-05T13:07:33.172Z,5.03
2023-01-05T13:12:05.353Z,6.65
2023-01-05T13:16:42.082Z,2.35
2023-01-05T13:21:04.342Z,7.00
2023-01-05T13:25:27.919Z,3.90
2023-01-05T13:29:51.132Z,3.40
2023-01-05T13:34:17.900Z,3.85
2023-01-05T13:39:25.188Z,3.00
2023-01-05T13:44:29.061Z,1.33
2023-01-05T13:49:04.053Z,0.90
2023-01-05T13:53:26.052Z,1.55
2023-01-05T13:57:44.539Z,1.55
2023-01-05T14:02:03.377Z,2.15
2023-01-05T14:06:38.300Z,1.88
2023-01-05T14:11:15.698Z,1.95
2023-01-05T14:15:44.503Z,1.60
2023-01-05T14:28:56.986Z,1.63
2023-01-05T14:33:18.771Z,1.63
2023-01-05T14:38:00.684Z,2.20
2023-01-05T14:42:32.938Z,1.83
2023-01-05T14:46:56.174Z,1.88
2023-01-05T14:51:16.127Z,1.52
2023-01-05T14:56:03.761Z,2.75
2023-01-05T15:00:48.388Z,1.95
2023-01-05T15:05:18.765Z,1.55
2023-01-05T15:09:48.509Z,2.08
2023-01-05T15:14:31.940Z,2.78
2023-01-05T15:19:22.029Z,3.17
2023-01-05T15:24:21.453Z,2.88
2023-01-05T15:29:40.081Z,3.00
2023-01-05T15:34:16.777Z,4.10
2023-01-05T15:38:46.301Z,5.78
2023-01-05T15:43:04.456Z,5.15
2023-01-05T15:47:25.913Z,3.97
2023-01-05T15:51:49.886Z,3.58
2023-01-05T15:56:25.936Z,4.03
2023-01-05T16:00:43.464Z,3.75
2023-01-05T16:05:24.237Z,3.10
2023-01-05T16:09:46.895Z,2.95
2023-01-05T16:14:14.077Z,2.00
2023-01-05T16:18:40.211Z,2.33
2023-01-05T16:23:17.138Z,2.35
2023-01-05T16:27:40.669Z,3.78
2023-01-05T16:31:58.401Z,2.40
2023-01-05T16:36:22.354Z,2.58
2023-01-05T16:40:45.760Z,2.92
2023-01-05T16:45:03.246Z,2.70
2023-01-05T16:49:49.858Z,1.92
2023-01-05T16:54:45.286Z,3.50
2023-01-05T16:59:31.169Z,2.33
2023-01-05T17:03:49.328Z,2.33
2023-01-05T17:08:10.733Z,2.90
2023-01-05T17:12:28.142Z,2.70
2023-01-05T17:16:46.289Z,1.77
2023-01-05T17:21:06.136Z,2.85
2023-01-05T17:25:31.579Z,2.33
2023-01-05T17:29:49.162Z,2.63
2023-01-05T17:34:07.089Z,1.75
2023-01-05T17:38:24.967Z,2.17
2023-01-05T17:42:44.939Z,2.58
2023-01-05T17:47:02.668Z,2.55
2023-01-05T17:51:20.575Z,2.50
2023-01-05T17:55:38.450Z,2.70
2023-01-05T17:59:56.262Z,1.92
2023-01-05T18:04:13.656Z,3.08
2023-01-05T18:08:31.531Z,1.88
2023-01-05T18:12:49.560Z,3.07
2023-01-05T18:17:06.720Z,2.27
2023-01-05T18:21:24.412Z,4.20
2023-01-05T18:25:42.052Z,2.38
2023-01-05T18:29:59.437Z,2.55
2023-01-05T18:34:16.958Z,3.00
2023-01-05T18:38:34.700Z,4.47
2023-01-05T18:42:52.194Z,4.38
2023-01-05T18:47:09.732Z,3.45
2023-01-05T18:51:27.669Z,3.75
2023-01-05T18:55:45.208Z,2.78
2023-01-05T19:00:05.599Z,3.45
2023-01-05T19:04:23.150Z,2.53
2023-01-05T19:08:42.918Z,2.25
2023-01-05T19:13:00.481Z,2.13
2023-01-05T19:17:18.205Z,2.30
2023-01-05T19:21:39.426Z,1.75
2023-01-05T19:26:05.915Z,2.58
2023-01-05T19:30:24.958Z,2.13
2023-01-05T19:34:42.918Z,1.88
2023-01-05T19:39:28.301Z,2.67
2023-01-05T19:43:54.448Z,3.88
2023-01-05T19:48:11.979Z,2.05
2023-01-05T19:52:30.272Z,2.55
2023-01-05T19:56:47.872Z,5.50
2023-01-05T20:01:14.468Z,4.03
2023-01-05T20:05:32.108Z,2.95
2023-01-05T20:09:51.471Z,3.83
2023-01-05T20:14:25.161Z,1.85
2023-01-05T20:18:42.891Z,3.85
2023-01-05T20:23:00.485Z,3.70
2023-01-05T20:27:19.362Z,3.83
2023-01-05T20:31:41.387Z,3.60
2023-01-05T20:35:59.117Z,2.33
2023-01-05T20:40:16.821Z,1.83
2023-01-05T20:44:38.191Z,1.70
2023-01-05T20:48:55.574Z,3.30
2023-01-05T20:53:13.342Z,2.87
2023-01-05T20:57:30.989Z,5.13
2023-01-05T21:01:50.000Z,3.90
2023-01-05T21:06:11.039Z,3.17
2023-01-05T21:10:29.760Z,3.42
2023-01-05T21:14:46.757Z,1.42
2023-01-05T21:19:06.146Z,3.03
2023-01-05T21:23:23.956Z,2.45
2023-01-05T21:27:44.472Z,1.80
2023-01-05T21:32:02.372Z,3.00
2023-01-05T21:36:31.433Z,1.45
2023-01-05T21:40:48.968Z,2.92
2023-01-05T21:45:08.630Z,2.35
2023-01-05T21:49:27.297Z,2.38
2023-01-05T21:54:03.676Z,1.73
2023-01-05T21:58:21.669Z,1.50
2023-01-05T22:02:38.730Z,1.65
2023-01-05T22:06:56.545Z,1.40
2023-01-05T22:11:13.933Z,1.55
2023-01-05T22:15:31.587Z,2.03
2023-01-05T22:19:49.138Z,2.83
2023-01-05T22:24:07.696Z,1.67
2023-01-05T22:32:42.524Z,1.67
2023-01-05T22:37:00.128Z,2.20
2023-01-05T22:41:24.431Z,1.73
2023-01-05T22:45:44.886Z,0.90
2023-01-05T22:50:04.223Z,2.10
2023-01-05T22:54:22.075Z,2.20
2023-01-05T22:58:40.588Z,2.65
2023-01-05T23:03:00.274Z,2.05
2023-01-05T23:07:20.797Z,2.10
2023-01-05T23:11:42.078Z,1.92
2023-01-05T23:15:59.594Z,2.17
2023-01-05T23:20:17.277Z,2.75
2023-01-05T23:24:34.998Z,2.42
2023-01-05T23:28:53.068Z,1.40
2023-01-05T23:33:10.400Z,1.30
2023-01-05T23:37:31.246Z,1.53
2023-01-05T23:41:48.863Z,0.85
2023-01-05T23:46:20.574Z,1.33
2023-01-05T23:50:43.627Z,1.10
2023-01-05T23:55:01.698Z,1.35
2023-01-05T23:59:19.320Z,1.20
